createdAt,value
2023-01-07T00:01:27.286Z,11.90
2023-01-07T00:03:56.219Z,11.90
2023-01-07T00:06:28.617Z,11.90
2023-01-07T00:08:56.518Z,12.00
2023-01-07T00:11:28.696Z,12.00
2023-01-07T00:13:57.073Z,11.90
2023-01-07T00:16:25.966Z,11.90
2023-01-07T00:18:53.654Z,11.90
2023-01-07T00:21:21.900Z,11.90
2023-01-07T00:23:48.893Z,11.90
2023-01-07T00:26:18.621Z,11.90
2023-01-07T00:28:48.023Z,11.90
2023-01-07T00:31:20.242Z,11.90
2023-01-07T00:33:59.589Z,12.80
2023-01-07T00:36:31.278Z,11.90
2023-01-07T00:39:09.095Z,11.90
2023-01-07T00:41:39.013Z,11.90
2023-01-07T00:44:06.688Z,11.90
2023-01-07T00:46:33.851Z,11.90
2023-01-07T00:49:01.908Z,11.90
2023-01-07T00:51:28.619Z,11.90
2023-01-07T00:53:55.198Z,11.90
2023-01-07T00:56:21.893Z,11.90
2023-01-07T00:58:48.517Z,11.90
2023-01-07T01:01:15.203Z,11.80
2023-01-07T01:03:42.027Z,11.90
2023-01-07T01:06:15.809Z,11.90
2023-01-07T01:08:44.296Z,13.00
2023-01-07T01:11:11.978Z,11.80
2023-01-07T01:13:39.116Z,11.80
2023-01-07T01:16:17.593Z,11.90
2023-01-07T01:18:45.564Z,11.90
2023-01-07T01:21:14.491Z,11.90
2023-01-07T01:23:41.555Z,12.10
2023-01-07T01:26:11.242Z,11.80
2023-01-07T01:28:38.354Z,11.90
2023-01-07T01:31:05.809Z,11.90
2023-01-07T01:33:32.472Z,11.90
2023-01-07T01:35:59.066Z,11.90
2023-01-07T01:38:25.697Z,11.80
2023-01-07T01:40:52.835Z,11.90
2023-01-07T01:43:32.635Z,11.80
2023-01-07T01:46:03.577Z,11.80
2023-01-07T01:48:31.289Z,11.80
2023-01-07T01:50:58.516Z,11.90
2023-01-07T01:53:30.612Z,11.80
2023-01-07T01:56:08.333Z,11.80
2023-01-07T01:58:42.261Z,11.80
2023-01-07T02:01:09.553Z,11.80
2023-01-07T02:03:38.084Z,11.80
2023-01-07T02:06:05.741Z,11.80
2023-01-07T02:08:32.426Z,11.80
2023-01-07T02:11:30.488Z,11.80
2023-01-07T02:14:17.189Z,11.80
2023-01-07T02:16:51.268Z,11.80
2023-01-07T02:19:50.610Z,11.80
2023-01-07T02:22:48.865Z,11.70
2023-01-07T02:25:42.092Z,11.70
2023-01-07T02:28:45.351Z,11.70
2023-01-07T02:31:27.092Z,11.70
2023-01-07T02:34:04.627Z,11.70
2023-01-07T02:36:34.435Z,11.70
2023-01-07T02:39:36.586Z,11.70
2023-01-07T02:42:26.388Z,11.70
2023-01-07T02:45:03.946Z,11.70
2023-01-07T02:47:36.645Z,11.70
2023-01-07T02:50:04.803Z,11.70
2023-01-07T02:52:33.344Z,11.70
2023-01-07T02:55:15.466Z,11.70
2023-01-07T02:57:48.157Z,11.70
2023-01-07T03:00:17.131Z,11.70
2023-01-07T03:03:05.550Z,11.70
2023-01-07T03:05:44.827Z,11.60
2023-01-07T03:08:58.633Z,11.60
2023-01-07T03:11:30.702Z,11.60
2023-01-07T03:14:09.683Z,11.60
2023-01-07T03:16:41.789Z,11.70
2023-01-07T03:19:13.345Z,11.60
2023-01-07T03:21:40.335Z,11.60
2023-01-07T03:24:08.190Z,11.60
2023-01-07T03:26:40.765Z,11.60
2023-01-07T03:29:10.025Z,11.60
2023-01-07T03:31:37.686Z,11.60
2023-01-07T03:34:10.300Z,11.60
2023-01-07T03:36:42.590Z,11.60
2023-01-07T03:39:13.176Z,11.60
2023-01-07T03:41:58.996Z,11.60
2023-01-07T03:44:25.830Z,11.70
2023-01-07T03:46:52.646Z,11.70
2023-01-07T03:49:19.895Z,11.60
2023-01-07T03:51:46.652Z,11.60
2023-01-07T03:54:13.271Z,11.60
2023-01-07T03:56:39.891Z,11.60
2023-01-07T03:59:06.458Z,11.60
2023-01-07T04:01:33.195Z,11.60
2023-01-07T04:04:02.354Z,11.60
2023-01-07T04:06:29.799Z,11.60
2023-01-07T04:08:56.419Z,11.60
2023-01-07T04:11:23.067Z,11.60
2023-01-07T04:13:49.705Z,11.60
2023-01-07T04:16:16.365Z,11.60
2023-01-07T04:18:43.044Z,11.60
2023-01-07T04:21:09.645Z,11.60
2023-01-07T04:23:36.236Z,11.60
2023-01-07T04:26:02.888Z,11.60
2023-01-07T04:28:29.522Z,11.60
2023-01-07T04:30:58.949Z,11.60
2023-01-07T04:33:25.754Z,11.60
2023-01-07T04:35:52.360Z,11.60
2023-01-07T04:38:18.957Z,11.60
2023-01-07T04:40:45.593Z,11.60
2023-01-07T04:43:12.208Z,11.60
2023-01-07T04:45:38.859Z,11.60
2023-01-07T04:48:05.736Z,11.60
2023-01-07T04:50:32.602Z,11.60
2023-01-07T04:52:59.189Z,11.60
2023-01-07T04:55:25.828Z,11.60
2023-01-07T04:57:52.421Z,11.60
2023-01-07T05:00:19.225Z,11.50
2023-01-07T05:02:45.838Z,11.60
2023-01-07T05:05:12.457Z,11.60
2023-01-07T05:07:39.074Z,11.60
2023-01-07T05:10:06.013Z,11.60
2023-01-07T05:12:36.189Z,11.60
2023-01-07T05:15:04.064Z,11.50
2023-01-07T05:17:30.645Z,11.50
2023-01-07T05:19:57.251Z,11.50
2023-01-07T05:22:24.015Z,11.50
2023-01-07T05:24:50.650Z,11.50
2023-01-07T05:27:17.515Z,11.50
2023-01-07T05:29:44.160Z,11.60
2023-01-07T05:32:10.747Z,11.60
2023-01-07T05:34:37.431Z,11.50
2023-01-07T05:37:04.052Z,11.50
2023-01-07T05:39:32.576Z,11.50
2023-01-07T05:41:59.531Z,11.50
2023-01-07T05:44:26.210Z,11.50
2023-01-07T05:46:52.876Z,11.50
2023-01-07T05:49:19.475Z,11.50
2023-01-07T05:51:46.084Z,11.50
2023-01-07T05:54:12.953Z,11.50
2023-01-07T05:56:39.612Z,11.50
2023-01-07T05:59:06.276Z,11.50
2023-01-07T06:01:33.246Z,11.50
2023-01-07T06:03:59.869Z,11.40
2023-01-07T06:06:26.572Z,11.50
2023-01-07T06:08:53.192Z,11.40
2023-01-07T06:11:19.797Z,11.40
2023-01-07T06:13:46.555Z,11.40
2023-01-07T06:16:14.133Z,11.40
2023-01-07T06:18:40.759Z,11.40
2023-01-07T06:21:07.759Z,11.50
2023-01-07T06:23:34.499Z,11.40
2023-01-07T06:26:01.174Z,11.40
2023-01-07T06:28:27.796Z,11.40
2023-01-07T06:30:54.542Z,11.40
2023-01-07T06:33:21.251Z,11.40
2023-01-07T06:35:48.011Z,11.40
2023-01-07T06:38:14.837Z,11.40
2023-01-07T06:40:41.552Z,11.40
2023-01-07T06:43:08.336Z,11.40
2023-01-07T06:45:34.971Z,11.40
2023-01-07T06:48:02.016Z,11.40
2023-01-07T06:50:28.861Z,11.40
2023-01-07T06:52:56.839Z,11.40
2023-01-07T06:55:23.587Z,11.40
2023-01-07T06:57:50.201Z,11.40
2023-01-07T07:00:17.056Z,11.40
2023-01-07T07:02:43.647Z,11.40
2023-01-07T07:05:11.424Z,11.40
2023-01-07T07:07:38.035Z,11.40
2023-01-07T07:10:07.478Z,11.40
2023-01-07T07:12:35.436Z,11.30
2023-01-07T07:15:02.506Z,11.30
2023-01-07T07:17:29.132Z,11.30
2023-01-07T07:19:55.946Z,11.30
2023-01-07T07:22:22.579Z,11.30
2023-01-07T07:24:49.217Z,11.30
2023-01-07T07:27:16.675Z,11.30
2023-01-07T07:29:43.300Z,11.30
2023-01-07T07:32:09.907Z,11.30
2023-01-07T07:34:36.631Z,11.30
2023-01-07T07:37:03.549Z,11.40
2023-01-07T07:39:30.196Z,11.30
2023-01-07T07:41:56.784Z,11.30
2023-01-07T07:44:23.666Z,11.40
2023-01-07T07:46:50.333Z,11.30
2023-01-07T07:49:16.945Z,11.30
2023-01-07T07:51:43.553Z,11.20
2023-01-07T07:54:10.208Z,11.30
2023-01-07T07:56:36.820Z,11.40
2023-01-07T07:59:03.628Z,11.30
2023-01-07T08:01:30.325Z,11.30
2023-01-07T08:03:57.018Z,11.30
2023-01-07T08:06:23.627Z,11.30
2023-01-07T08:08:50.270Z,11.30
2023-01-07T08:11:16.930Z,11.30
2023-01-07T08:13:43.516Z,11.30
2023-01-07T08:16:10.329Z,11.30
2023-01-07T08:18:37.138Z,11.30
2023-01-07T08:21:03.879Z,11.20
2023-01-07T08:23:31.223Z,11.20
2023-01-07T08:26:02.867Z,11.30
2023-01-07T08:28:30.903Z,11.30
2023-01-07T08:30:58.406Z,11.20
2023-01-07T08:33:24.985Z,11.20
2023-01-07T08:35:51.701Z,11.20
2023-01-07T08:38:18.304Z,11.20
2023-01-07T08:40:44.916Z,11.20
2023-01-07T08:43:12.234Z,11.20
2023-01-07T08:45:38.848Z,11.20
2023-01-07T08:48:05.932Z,11.20
2023-01-07T08:50:33.918Z,11.20
2023-01-07T08:53:00.815Z,11.30
2023-01-07T08:55:27.576Z,11.20
2023-01-07T08:57:54.195Z,11.20
2023-01-07T09:00:21.082Z,11.20
2023-01-07T09:02:48.370Z,11.20
2023-01-07T09:05:15.127Z,11.30
2023-01-07T09:07:42.048Z,11.20
2023-01-07T09:10:09.455Z,11.30
2023-01-07T09:12:36.235Z,11.20
2023-01-07T09:15:03.066Z,11.30
2023-01-07T09:17:29.790Z,11.30
2023-01-07T09:19:56.420Z,11.30
2023-01-07T09:22:23.066Z,11.30
2023-01-07T09:24:49.728Z,11.40
2023-01-07T09:27:16.947Z,11.40
2023-01-07T09:29:43.695Z,11.40
2023-01-07T09:32:10.548Z,11.40
2023-01-07T09:34:38.512Z,11.40
2023-01-07T09:37:06.019Z,11.40
2023-01-07T09:39:32.873Z,11.40
2023-01-07T09:42:11.517Z,11.40
2023-01-07T09:44:49.315Z,11.40
2023-01-07T09:47:18.413Z,11.40
2023-01-07T09:49:46.714Z,11.40
2023-01-07T09:52:18.053Z,11.50
2023-01-07T09:54:46.124Z,11.50
2023-01-07T09:57:16.200Z,11.50
2023-01-07T09:59:43.206Z,11.50
2023-01-07T10:02:18.965Z,11.50
2023-01-07T10:05:08.415Z,11.50
2023-01-07T10:08:30.069Z,11.50
2023-01-07T10:11:13.345Z,11.60
2023-01-07T10:14:10.415Z,11.60
2023-01-07T10:16:56.745Z,11.60
2023-01-07T10:19:44.743Z,11.60
2023-01-07T10:22:25.366Z,11.60
2023-01-07T10:24:57.593Z,11.70
2023-01-07T10:27:37.668Z,11.70
2023-01-07T10:30:15.942Z,11.70
2023-01-07T10:32:42.881Z,11.80
2023-01-07T10:35:14.749Z,11.80
2023-01-07T10:37:42.658Z,11.80
2023-01-07T10:40:12.371Z,11.80
2023-01-07T10:43:14.275Z,11.80
2023-01-07T10:46:00.399Z,11.90
2023-01-07T10:48:27.011Z,12.00
2023-01-07T10:51:12.420Z,11.90
2023-01-07T10:54:16.558Z,12.00
2023-01-07T10:56:54.621Z,12.00
2023-01-07T10:59:22.066Z,12.00
2023-01-07T11:01:57.591Z,12.00
2023-01-07T11:04:24.651Z,12.10
2023-01-07T11:06:57.093Z,12.10
2023-01-07T11:09:41.491Z,12.20
2023-01-07T11:12:38.183Z,12.20
2023-01-07T11:15:09.111Z,12.20
2023-01-07T11:17:42.095Z,12.20
2023-01-07T11:20:09.418Z,12.20
2023-01-07T11:22:37.699Z,12.20
2023-01-07T11:25:33.970Z,12.20
2023-01-07T11:28:02.207Z,12.30
2023-01-07T11:30:32.407Z,12.40
2023-01-07T11:33:04.271Z,12.40
2023-01-07T11:35:31.056Z,12.30
2023-01-07T11:37:58.724Z,12.30
2023-01-07T11:40:28.928Z,12.30
2023-01-07T11:43:04.343Z,12.30
2023-01-07T11:46:20.254Z,12.40
2023-01-07T11:48:36.161Z,12.40
2023-01-07T11:51:10.134Z,12.40
2023-01-07T11:53:50.975Z,12.40
2023-01-07T11:56:20.646Z,12.50
2023-01-07T11:58:50.046Z,12.50
2023-01-07T12:01:18.014Z,12.50
2023-01-07T12:03:56.863Z,12.50
2023-01-07T12:06:33.097Z,12.50
2023-01-07T12:09:27.891Z,12.50
2023-01-07T12:11:56.929Z,12.60
2023-01-07T12:14:33.370Z,12.60
2023-01-07T12:17:17.576Z,12.60
2023-01-07T12:20:21.449Z,12.60
2023-01-07T12:23:17.931Z,12.70
2023-01-07T12:25:45.512Z,12.70
2023-01-07T12:28:16.724Z,12.70
2023-01-07T12:31:13.864Z,12.80
2023-01-07T12:34:07.718Z,12.80
2023-01-07T12:36:48.249Z,12.90
2023-01-07T12:39:23.474Z,12.90
2023-01-07T12:42:16.076Z,12.90
2023-01-07T12:44:54.915Z,13.00
2023-01-07T12:47:30.743Z,13.00
2023-01-07T12:50:19.046Z,13.10
2023-01-07T12:53:02.214Z,13.20
2023-01-07T12:55:37.158Z,13.20
2023-01-07T12:58:17.166Z,13.30
2023-01-07T13:00:55.216Z,13.40
2023-01-07T13:03:52.428Z,13.40
2023-01-07T13:06:23.983Z,13.50
2023-01-07T13:08:57.900Z,13.50
2023-01-07T13:12:40.898Z,13.60
2023-01-07T13:15:02.516Z,13.60
2023-01-07T13:17:33.786Z,13.70
2023-01-07T13:20:01.970Z,13.70
2023-01-07T13:22:40.688Z,13.80
2023-01-07T13:25:42.241Z,13.90
2023-01-07T13:28:32.456Z,13.90
2023-01-07T13:31:15.167Z,14.00
2023-01-07T13:33:53.493Z,14.10
2023-01-07T13:36:35.219Z,14.20
2023-01-07T13:39:36.026Z,14.20
2023-01-07T13:42:19.373Z,14.30
2023-01-07T13:45:19.208Z,14.40
2023-01-07T13:47:54.495Z,14.50
2023-01-07T13:50:40.151Z,14.60
2023-01-07T13:53:27.307Z,14.60
2023-01-07T13:55:55.031Z,14.60
2023-01-07T13:58:30.941Z,14.60
2023-01-07T14:01:08.448Z,14.60
2023-01-07T14:03:53.309Z,14.70
2023-01-07T14:06:20.212Z,14.70
2023-01-07T14:08:50.546Z,14.70
2023-01-07T14:11:18.266Z,14.70
2023-01-07T14:14:10.821Z,14.70
2023-01-07T14:16:44.671Z,14.70
2023-01-07T14:19:25.288Z,14.70
2023-01-07T14:22:10.034Z,14.70
2023-01-07T14:24:59.631Z,14.70
2023-01-07T14:27:41.249Z,14.70
2023-01-07T14:30:30.484Z,14.60
2023-01-07T14:33:03.142Z,14.60
2023-01-07T14:35:39.621Z,14.60
2023-01-07T14:38:46.661Z,14.60
2023-01-07T14:41:17.063Z,14.50
2023-01-07T14:43:44.029Z,14.50
2023-01-07T14:46:37.201Z,14.50
2023-01-07T14:49:35.188Z,14.50
2023-01-07T14:52:23.741Z,14.40
2023-01-07T14:54:50.391Z,14.40
2023-01-07T14:57:35.922Z,14.40
2023-01-07T15:00:20.857Z,14.40
2023-01-07T15:03:11.746Z,14.30
2023-01-07T15:06:16.158Z,14.40
2023-01-07T15:09:09.180Z,14.40
2023-01-07T15:11:55.904Z,14.30
2023-01-07T15:14:44.910Z,14.30
2023-01-07T15:17:13.745Z,14.30
2023-01-07T15:19:40.757Z,14.20
2023-01-07T15:22:39.446Z,14.10
2023-01-07T15:25:15.459Z,14.10
2023-01-07T15:27:48.108Z,14.00
2023-01-07T15:30:28.576Z,14.00
2023-01-07T15:33:06.162Z,14.00
2023-01-07T15:35:41.703Z,13.90
2023-01-07T15:38:38.121Z,13.90
2023-01-07T15:41:05.125Z,13.80
2023-01-07T15:43:32.084Z,13.80
2023-01-07T15:46:01.291Z,13.80
2023-01-07T15:48:28.003Z,13.70
2023-01-07T15:50:55.246Z,13.70
2023-01-07T15:53:27.110Z,13.60
2023-01-07T15:56:04.336Z,13.60
2023-01-07T15:58:39.421Z,13.50
2023-01-07T16:01:07.768Z,13.50
2023-01-07T16:03:38.475Z,13.50
2023-01-07T16:06:05.467Z,13.40
2023-01-07T16:08:33.649Z,13.40
2023-01-07T16:11:04.575Z,13.40
2023-01-07T16:13:32.576Z,13.30
2023-01-07T16:16:05.631Z,13.30
2023-01-07T16:18:34.003Z,13.20
2023-01-07T16:21:04.910Z,13.20
2023-01-07T16:23:36.605Z,13.20
2023-01-07T16:26:14.959Z,13.20
2023-01-07T16:28:48.246Z,13.10
2023-01-07T16:31:17.001Z,13.00
2023-01-07T16:33:44.018Z,13.00
2023-01-07T16:36:36.488Z,13.00
2023-01-07T16:39:21.986Z,12.90
2023-01-07T16:41:49.105Z,12.80
2023-01-07T16:44:46.897Z,12.80
2023-01-07T16:47:21.565Z,12.80
2023-01-07T16:49:52.603Z,12.70
2023-01-07T16:52:32.927Z,12.70
2023-01-07T16:55:00.192Z,12.60
2023-01-07T16:57:32.552Z,12.60
2023-01-07T17:00:01.717Z,12.60
2023-01-07T17:02:39.249Z,12.50
2023-01-07T17:05:16.992Z,12.50
2023-01-07T17:07:51.299Z,12.40
2023-01-07T17:10:29.045Z,12.40
2023-01-07T17:12:57.289Z,12.40
2023-01-07T17:15:32.807Z,12.40
2023-01-07T17:18:11.496Z,12.30
2023-01-07T17:20:47.756Z,12.30
2023-01-07T17:23:33.661Z,12.30
2023-01-07T17:26:05.607Z,12.20
2023-01-07T17:28:52.054Z,12.20
2023-01-07T17:31:19.427Z,12.20
2023-01-07T17:33:46.339Z,12.10
2023-01-07T17:36:24.028Z,12.10
2023-01-07T17:38:51.047Z,12.00
2023-01-07T17:43:57.139Z,12.00
2023-01-07T17:46:24.216Z,12.00
2023-01-07T17:48:50.889Z,11.90
2023-01-07T17:51:17.658Z,11.90
2023-01-07T17:53:46.187Z,11.90
2023-01-07T17:56:13.683Z,11.90
2023-01-07T17:58:44.796Z,11.80
2023-01-07T18:01:14.101Z,11.80
2023-01-07T18:03:41.203Z,11.70
2023-01-07T18:06:20.793Z,11.70
2023-01-07T18:08:49.117Z,11.70
2023-01-07T18:11:37.240Z,11.70
2023-01-07T18:14:04.431Z,11.70
2023-01-07T18:16:31.246Z,11.60
2023-01-07T18:18:58.020Z,11.60
2023-01-07T18:21:25.226Z,11.60
2023-01-07T18:23:52.043Z,11.60
2023-01-07T18:26:19.143Z,11.50
2023-01-07T18:28:47.928Z,11.50
2023-01-07T18:31:15.269Z,11.50
2023-01-07T18:33:42.107Z,11.40
2023-01-07T18:36:10.206Z,11.40
2023-01-07T18:38:36.929Z,11.40
2023-01-07T18:41:03.842Z,11.30
2023-01-07T18:43:30.590Z,11.30
2023-01-07T18:45:57.456Z,11.30
2023-01-07T18:48:24.368Z,11.30
2023-01-07T18:50:51.053Z,11.20
2023-01-07T18:53:19.179Z,11.20
2023-01-07T18:55:46.310Z,11.10
2023-01-07T18:58:14.055Z,11.10
2023-01-07T19:00:41.327Z,11.10
2023-01-07T19:03:08.175Z,11.10
2023-01-07T19:05:35.501Z,11.00
2023-01-07T19:08:02.393Z,11.20
2023-01-07T19:10:29.233Z,11.00
2023-01-07T19:12:56.140Z,10.90
2023-01-07T19:15:23.233Z,10.90
2023-01-07T19:17:49.943Z,10.90
2023-01-07T19:20:18.136Z,11.00
2023-01-07T19:22:44.870Z,10.80
2023-01-07T19:25:11.960Z,10.70
2023-01-07T19:27:38.946Z,11.40
2023-01-07T19:30:06.792Z,10.70
2023-01-07T19:32:36.327Z,10.70
2023-01-07T19:35:03.783Z,10.70
2023-01-07T19:37:37.735Z,10.70
2023-01-07T19:40:09.097Z,10.70
2023-01-07T19:42:38.765Z,10.50
2023-01-07T19:45:06.989Z,12.10
2023-01-07T19:47:37.003Z,10.60
2023-01-07T19:50:04.702Z,10.60
2023-01-07T19:52:36.634Z,10.50
2023-01-07T19:55:04.009Z,10.50
2023-01-07T19:57:31.731Z,10.50
2023-01-07T19:59:59.176Z,10.50
2023-01-07T20:02:26.467Z,10.40
2023-01-07T20:04:53.698Z,10.50
2023-01-07T20:07:21.130Z,10.60
2023-01-07T20:09:48.733Z,10.60
2023-01-07T20:12:16.145Z,10.40
2023-01-07T20:14:45.099Z,10.50
2023-01-07T20:17:11.931Z,10.30
2023-01-07T20:19:39.604Z,10.30
2023-01-07T20:22:06.665Z,10.30
2023-01-07T20:24:33.609Z,10.30
2023-01-07T20:27:00.327Z,10.30
2023-01-07T20:29:27.078Z,10.20
2023-01-07T20:31:54.063Z,10.20
2023-01-07T20:34:20.987Z,10.20
2023-01-07T20:36:47.684Z,10.10
2023-01-07T20:39:14.482Z,10.10
2023-01-07T20:41:41.289Z,10.10
2023-01-07T20:44:08.888Z,10.10
2023-01-07T20:46:35.787Z,10.10
2023-01-07T20:49:02.745Z,10.10
2023-01-07T20:51:30.588Z,10.10
2023-01-07T20:53:57.873Z,10.10
2023-01-07T20:56:26.242Z,10.00
2023-01-07T20:58:53.078Z,10.00
2023-01-07T21:01:21.172Z,10.00
2023-01-07T21:03:48.398Z,10.00
2023-01-07T21:06:17.710Z,10.00
2023-01-07T21:08:46.183Z,10.00
2023-01-07T21:11:15.561Z,9.90
2023-01-07T21:13:42.745Z,9.90
2023-01-07T21:16:09.826Z,9.90
2023-01-07T21:18:36.672Z,9.90
2023-01-07T21:21:12.047Z,9.90
2023-01-07T21:23:39.163Z,9.80
2023-01-07T21:26:07.117Z,9.80
2023-01-07T21:28:34.803Z,9.80
2023-01-07T21:31:04.940Z,9.80
2023-01-07T21:33:32.834Z,9.80
2023-01-07T21:35:59.860Z,9.70
2023-01-07T21:38:26.604Z,9.70
2023-01-07T21:40:54.076Z,9.70
2023-01-07T21:43:20.926Z,9.70
2023-01-07T21:45:47.805Z,9.70
2023-01-07T21:48:14.599Z,9.70
2023-01-07T21:50:41.416Z,9.60
2023-01-07T21:53:08.285Z,9.60
2023-01-07T21:55:38.076Z,9.60
2023-01-07T21:58:04.829Z,9.60
2023-01-07T22:00:31.592Z,9.60
2023-01-07T22:02:58.505Z,9.70
2023-01-07T22:05:25.316Z,9.60
2023-01-07T22:07:52.077Z,9.50
2023-01-07T22:10:18.862Z,9.50
2023-01-07T22:12:45.617Z,9.50
2023-01-07T22:15:12.311Z,9.50
2023-01-07T22:17:39.009Z,9.50
2023-01-07T22:20:06.229Z,9.50
2023-01-07T22:22:32.939Z,9.40
2023-01-07T22:24:59.820Z,9.40
2023-01-07T22:27:26.489Z,9.40
2023-01-07T22:29:55.090Z,9.40
2023-01-07T22:32:21.829Z,9.40
2023-01-07T22:34:48.713Z,9.40
2023-01-07T22:37:17.190Z,9.40
2023-01-07T22:39:54.002Z,9.30
2023-01-07T22:42:30.232Z,9.30
2023-01-07T22:45:04.583Z,9.30
2023-01-07T22:47:35.904Z,9.30
2023-01-07T22:50:04.662Z,9.20
2023-01-07T22:52:31.674Z,9.30
2023-01-07T22:54:58.877Z,9.20
2023-01-07T22:57:26.283Z,9.20
2023-01-07T22:59:52.971Z,9.20
2023-01-07T23:02:19.883Z,9.20
2023-01-07T23:04:46.690Z,9.20
2023-01-07T23:07:13.385Z,9.10
2023-01-07T23:09:41.671Z,9.10
2023-01-07T23:12:10.988Z,9.10
2023-01-07T23:14:37.790Z,9.10
2023-01-07T23:17:04.575Z,9.10
2023-01-07T23:19:32.227Z,9.10
2023-01-07T23:21:59.115Z,9.00
2023-01-07T23:24:25.864Z,9.00
2023-01-07T23:26:53.904Z,9.00
2023-01-07T23:29:21.181Z,9.00
2023-01-07T23:31:47.937Z,9.00
2023-01-07T23:34:15.765Z,9.00
2023-01-07T23:36:42.524Z,9.00
2023-01-07T23:39:09.238Z,9.00
2023-01-07T23:41:36.182Z,8.90
2023-01-07T23:44:03.053Z,8.90
2023-01-07T23:46:30.007Z,8.90
2023-01-07T23:48:56.864Z,8.90
2023-01-07T23:51:23.763Z,8.90
2023-01-07T23:53:51.504Z,8.90
2023-01-07T23:56:19.671Z,8.80
2023-01-07T23:58:46.590Z,8.80
